sensor_id;sensor_type;location;lat;lon;timestamp;P1;durP1;ratioP1;P2;durP2;ratioP2
18162;SDS011;9206;50.994;4.538;2023-06-10T00:02:27;6.50;;;6.10;;
18162;SDS011;9206;50.994;4.538;2023-06-10T00:05:18;6.40;;;6.00;;
18162;SDS011;9206;50.994;4.538;2023-06-10T00:08:21;6.13;;;5.75;;
18162;SDS011;9206;50.994;4.538;2023-06-10T00:11:10;6.82;;;6.22;;
18162;SDS011;9206;50.994;4.538;2023-06-10T00:13:59;8.20;;;6.50;;
18162;SDS011;9206;50.994;4.538;2023-06-10T00:16:50;7.32;;;6.70;;
18162;SDS011;9206;50.994;4.538;2023-06-10T00:19:40;6.60;;;6.10;;
18162;SDS011;9206;50.994;4.538;2023-06-10T00:25:39;6.85;;;6.32;;
18162;SDS011;9206;50.994;4.538;2023-06-10T00:31:58;6.85;;;6.30;;
18162;SDS011;9206;50.994;4.538;2023-06-10T00:34:48;6.95;;;6.00;;
18162;SDS011;9206;50.994;4.538;2023-06-10T00:37:38;6.82;;;6.32;;
18162;SDS011;9206;50.994;4.538;2023-06-10T00:40:29;9.98;;;6.70;;
18162;SDS011;9206;50.994;4.538;2023-06-10T00:43:21;9.98;;;6.95;;
18162;SDS011;9206;50.994;4.538;2023-06-10T00:46:12;6.70;;;6.20;;
18162;SDS011;9206;50.994;4.538;2023-06-10T00:49:09;11.80;;;6.50;;
18162;SDS011;9206;50.994;4.538;2023-06-10T00:52:15;9.20;;;5.63;;
18162;SDS011;9206;50.994;4.538;2023-06-10T00:55:18;8.07;;;6.88;;
18162;SDS011;9206;50.994;4.538;2023-06-10T01:00:58;6.68;;;6.18;;
18162;SDS011;9206;50.994;4.538;2023-06-10T01:03:47;7.55;;;6.90;;
18162;SDS011;9206;50.994;4.538;2023-06-10T01:06:41;7.40;;;6.65;;
18162;SDS011;9206;50.994;4.538;2023-06-10T01:09:41;7.47;;;6.75;;
18162;SDS011;9206;50.994;4.538;2023-06-10T01:12:41;7.78;;;7.07;;
18162;SDS011;9206;50.994;4.538;2023-06-10T01:16:14;7.32;;;6.72;;
18162;SDS011;9206;50.994;4.538;2023-06-10T01:19:17;6.97;;;6.47;;
18162;SDS011;9206;50.994;4.538;2023-06-10T01:22:13;14.32;;;7.03;;
18162;SDS011;9206;50.994;4.538;2023-06-10T01:25:06;7.72;;;6.60;;
18162;SDS011;9206;50.994;4.538;2023-06-10T01:27:56;9.20;;;7.10;;
18162;SDS011;9206;50.994;4.538;2023-06-10T01:30:59;7.28;;;6.68;;
18162;SDS011;9206;50.994;4.538;2023-06-10T01:34:01;7.05;;;6.47;;
18162;SDS011;9206;50.994;4.538;2023-06-10T01:36:53;7.65;;;6.78;;
18162;SDS011;9206;50.994;4.538;2023-06-10T01:39:48;7.47;;;6.78;;
18162;SDS011;9206;50.994;4.538;2023-06-10T01:42:36;7.68;;;7.07;;
18162;SDS011;9206;50.994;4.538;2023-06-10T01:45:28;8.35;;;7.50;;
18162;SDS011;9206;50.994;4.538;2023-06-10T01:48:18;7.93;;;7.18;;
18162;SDS011;9206;50.994;4.538;2023-06-10T01:51:08;11.32;;;7.80;;
18162;SDS011;9206;50.994;4.538;2023-06-10T01:57:16;7.70;;;7.30;;
18162;SDS011;9206;50.994;4.538;2023-06-10T02:00:14;8.02;;;7.53;;
18162;SDS011;9206;50.994;4.538;2023-06-10T02:08:52;8.57;;;7.82;;
18162;SDS011;9206;50.994;4.538;2023-06-10T02:11:44;8.63;;;7.93;;
18162;SDS011;9206;50.994;4.538;2023-06-10T02:17:45;9.07;;;8.02;;
18162;SDS011;9206;50.994;4.538;2023-06-10T02:20:41;8.85;;;8.32;;
18162;SDS011;9206;50.994;4.538;2023-06-10T02:23:29;9.05;;;8.45;;
18162;SDS011;9206;50.994;4.538;2023-06-10T02:26:17;8.73;;;8.10;;
18162;SDS011;9206;50.994;4.538;2023-06-10T02:29:05;12.98;;;8.32;;
18162;SDS011;9206;50.994;4.538;2023-06-10T02:31:55;8.23;;;7.82;;
18162;SDS011;9206;50.994;4.538;2023-06-10T02:34:44;8.57;;;8.07;;
18162;SDS011;9206;50.994;4.538;2023-06-10T02:37:31;9.43;;;8.45;;
18162;SDS011;9206;50.994;4.538;2023-06-10T02:40:19;9.38;;;8.45;;
18162;SDS011;9206;50.994;4.538;2023-06-10T02:43:09;9.40;;;8.35;;
18162;SDS011;9206;50.994;4.538;2023-06-10T02:45:57;10.20;;;8.57;;
18162;SDS011;9206;50.994;4.538;2023-06-10T02:48:48;10.48;;;7.75;;
18162;SDS011;9206;50.994;4.538;2023-06-10T02:51:37;11.23;;;8.95;;
18162;SDS011;9206;50.994;4.538;2023-06-10T02:54:32;9.95;;;8.95;;
18162;SDS011;9206;50.994;4.538;2023-06-10T02:57:27;10.45;;;9.48;;
18162;SDS011;9206;50.994;4.538;2023-06-10T03:00:15;14.57;;;9.35;;
18162;SDS011;9206;50.994;4.538;2023-06-10T03:03:08;9.82;;;9.18;;
18162;SDS011;9206;50.994;4.538;2023-06-10T03:05:57;9.90;;;9.02;;
18162;SDS011;9206;50.994;4.538;2023-06-10T03:08:50;9.98;;;9.10;;
18162;SDS011;9206;50.994;4.538;2023-06-10T03:11:51;9.50;;;8.90;;
18162;SDS011;9206;50.994;4.538;2023-06-10T03:14:39;12.70;;;8.95;;
18162;SDS011;9206;50.994;4.538;2023-06-10T03:17:30;9.63;;;8.77;;
18162;SDS011;9206;50.994;4.538;2023-06-10T03:20:24;11.55;;;10.45;;
18162;SDS011;9206;50.994;4.538;2023-06-10T03:33:31;10.45;;;9.65;;
18162;SDS011;9206;50.994;4.538;2023-06-10T03:36:31;10.40;;;9.30;;
18162;SDS011;9206;50.994;4.538;2023-06-10T03:39:32;10.02;;;9.13;;
18162;SDS011;9206;50.994;4.538;2023-06-10T03:42:20;11.30;;;10.20;;
18162;SDS011;9206;50.994;4.538;2023-06-10T03:48:41;10.43;;;9.52;;
18162;SDS011;9206;50.994;4.538;2023-06-10T03:53:37;10.77;;;9.90;;
18162;SDS011;9206;50.994;4.538;2023-06-10T03:55:18;10.23;;;9.52;;
18162;SDS011;9206;50.994;4.538;2023-06-10T03:58:07;11.18;;;10.15;;
18162;SDS011;9206;50.994;4.538;2023-06-10T04:01:11;11.77;;;10.75;;
18162;SDS011;9206;50.994;4.538;2023-06-10T04:07:18;10.98;;;10.02;;
18162;SDS011;9206;50.994;4.538;2023-06-10T04:10:08;10.40;;;9.60;;
18162;SDS011;9206;50.994;4.538;2023-06-10T04:12:56;12.05;;;10.32;;
18162;SDS011;9206;50.994;4.538;2023-06-10T04:16:03;11.88;;;10.85;;
18162;SDS011;9206;50.994;4.538;2023-06-10T04:18:57;11.13;;;10.05;;
18162;SDS011;9206;50.994;4.538;2023-06-10T04:25:36;10.73;;;9.63;;
18162;SDS011;9206;50.994;4.538;2023-06-10T04:28:25;11.88;;;10.07;;
18162;SDS011;9206;50.994;4.538;2023-06-10T04:34:24;11.70;;;10.65;;
18162;SDS011;9206;50.994;4.538;2023-06-10T04:37:12;11.20;;;10.10;;
18162;SDS011;9206;50.994;4.538;2023-06-10T04:40:01;10.93;;;10.02;;
18162;SDS011;9206;50.994;4.538;2023-06-10T04:42:52;11.95;;;11.00;;
18162;SDS011;9206;50.994;4.538;2023-06-10T04:45:45;11.45;;;10.30;;
18162;SDS011;9206;50.994;4.538;2023-06-10T04:48:38;13.68;;;10.73;;
18162;SDS011;9206;50.994;4.538;2023-06-10T04:51:27;11.07;;;9.93;;
18162;SDS011;9206;50.994;4.538;2023-06-10T04:54:24;10.15;;;9.38;;
18162;SDS011;9206;50.994;4.538;2023-06-10T04:57:17;11.85;;;10.68;;
18162;SDS011;9206;50.994;4.538;2023-06-10T05:00:08;11.23;;;10.30;;
18162;SDS011;9206;50.994;4.538;2023-06-10T05:03:03;11.05;;;9.98;;
18162;SDS011;9206;50.994;4.538;2023-06-10T05:05:53;10.68;;;9.95;;
18162;SDS011;9206;50.994;4.538;2023-06-10T05:08:47;11.20;;;10.23;;
18162;SDS011;9206;50.994;4.538;2023-06-10T05:11:43;10.38;;;9.50;;
18162;SDS011;9206;50.994;4.538;2023-06-10T05:14:33;10.90;;;9.30;;
18162;SDS011;9206;50.994;4.538;2023-06-10T05:17:22;11.10;;;10.13;;
18162;SDS011;9206;50.994;4.538;2023-06-10T05:20:18;11.98;;;10.82;;
18162;SDS011;9206;50.994;4.538;2023-06-10T05:23:09;11.45;;;10.25;;
18162;SDS011;9206;50.994;4.538;2023-06-10T05:26:02;11.05;;;9.98;;
18162;SDS011;9206;50.994;4.538;2023-06-10T05:28:50;11.65;;;10.32;;
18162;SDS011;9206;50.994;4.538;2023-06-10T05:31:44;10.93;;;10.13;;
18162;SDS011;9206;50.994;4.538;2023-06-10T05:34:38;10.23;;;9.23;;
18162;SDS011;9206;50.994;4.538;2023-06-10T05:37:26;13.30;;;11.20;;
18162;SDS011;9206;50.994;4.538;2023-06-10T05:40:14;15.00;;;10.40;;
18162;SDS011;9206;50.994;4.538;2023-06-10T05:43:08;11.68;;;10.13;;
18162;SDS011;9206;50.994;4.538;2023-06-10T05:46:15;12.18;;;10.07;;
18162;SDS011;9206;50.994;4.538;2023-06-10T05:49:05;11.40;;;9.88;;
18162;SDS011;9206;50.994;4.538;2023-06-10T05:51:56;10.70;;;9.80;;
18162;SDS011;9206;50.994;4.538;2023-06-10T05:54:48;10.18;;;9.43;;
18162;SDS011;9206;50.994;4.538;2023-06-10T05:57:37;11.10;;;9.85;;
18162;SDS011;9206;50.994;4.538;2023-06-10T06:04:13;10.25;;;9.52;;
18162;SDS011;9206;50.994;4.538;2023-06-10T06:07:02;9.95;;;9.00;;
18162;SDS011;9206;50.994;4.538;2023-06-10T06:09:52;9.48;;;8.63;;
18162;SDS011;9206;50.994;4.538;2023-06-10T06:12:47;9.75;;;8.80;;
18162;SDS011;9206;50.994;4.538;2023-06-10T06:15:59;8.57;;;7.97;;
18162;SDS011;9206;50.994;4.538;2023-06-10T06:24:28;9.60;;;8.05;;
18162;SDS011;9206;50.994;4.538;2023-06-10T06:27:17;8.05;;;7.55;;
18162;SDS011;9206;50.994;4.538;2023-06-10T06:30:18;7.97;;;7.47;;
18162;SDS011;9206;50.994;4.538;2023-06-10T06:33:11;8.05;;;7.50;;
18162;SDS011;9206;50.994;4.538;2023-06-10T06:35:59;7.60;;;6.85;;
18162;SDS011;9206;50.994;4.538;2023-06-10T06:38:49;7.28;;;6.65;;
18162;SDS011;9206;50.994;4.538;2023-06-10T06:41:56;7.00;;;6.43;;
18162;SDS011;9206;50.994;4.538;2023-06-10T06:44:45;7.68;;;7.18;;
18162;SDS011;9206;50.994;4.538;2023-06-10T06:47:39;7.40;;;6.93;;
18162;SDS011;9206;50.994;4.538;2023-06-10T06:50:29;7.65;;;6.88;;
18162;SDS011;9206;50.994;4.538;2023-06-10T06:53:22;9.45;;;6.18;;
18162;SDS011;9206;50.994;4.538;2023-06-10T06:56:15;10.43;;;6.90;;
18162;SDS011;9206;50.994;4.538;2023-06-10T06:59:11;6.80;;;6.40;;
18162;SDS011;9206;50.994;4.538;2023-06-10T07:01:59;7.07;;;6.68;;
18162;SDS011;9206;50.994;4.538;2023-06-10T07:04:46;8.45;;;7.18;;
18162;SDS011;9206;50.994;4.538;2023-06-10T07:07:41;6.97;;;6.53;;
18162;SDS011;9206;50.994;4.538;2023-06-10T07:13:27;6.55;;;6.10;;
18162;SDS011;9206;50.994;4.538;2023-06-10T07:16:18;8.27;;;6.32;;
18162;SDS011;9206;50.994;4.538;2023-06-10T07:19:12;6.68;;;6.05;;
18162;SDS011;9206;50.994;4.538;2023-06-10T07:22:01;6.53;;;5.68;;
18162;SDS011;9206;50.994;4.538;2023-06-10T07:24:49;6.50;;;6.05;;
18162;SDS011;9206;50.994;4.538;2023-06-10T07:27:44;6.57;;;5.95;;
18162;SDS011;9206;50.994;4.538;2023-06-10T07:30:31;5.90;;;5.57;;
18162;SDS011;9206;50.994;4.538;2023-06-10T07:36:33;7.25;;;6.20;;
18162;SDS011;9206;50.994;4.538;2023-06-10T07:45:24;6.00;;;5.60;;
18162;SDS011;9206;50.994;4.538;2023-06-10T07:48:29;6.10;;;5.45;;
18162;SDS011;9206;50.994;4.538;2023-06-10T07:51:17;6.80;;;6.30;;
18162;SDS011;9206;50.994;4.538;2023-06-10T07:54:07;6.22;;;5.70;;
18162;SDS011;9206;50.994;4.538;2023-06-10T07:56:58;6.70;;;5.20;;
18162;SDS011;9206;50.994;4.538;2023-06-10T07:59:46;5.50;;;5.10;;
18162;SDS011;9206;50.994;4.538;2023-06-10T08:06:14;5.68;;;5.38;;
18162;SDS011;9206;50.994;4.538;2023-06-10T08:12:49;5.53;;;5.05;;
18162;SDS011;9206;50.994;4.538;2023-06-10T08:15:57;5.65;;;5.15;;
18162;SDS011;9206;50.994;4.538;2023-06-10T08:18:49;5.40;;;5.10;;
18162;SDS011;9206;50.994;4.538;2023-06-10T09:46:52;6.32;;;4.90;;
18162;SDS011;9206;50.994;4.538;2023-06-10T10:01:21;5.55;;;5.05;;
18162;SDS011;9206;50.994;4.538;2023-06-10T10:34:49;7.32;;;4.20;;
18162;SDS011;9206;50.994;4.538;2023-06-10T10:37:40;4.63;;;4.32;;
18162;SDS011;9206;50.994;4.538;2023-06-10T10:40:36;4.95;;;4.65;;
18162;SDS011;9206;50.994;4.538;2023-06-10T10:49:13;5.40;;;4.90;;
18162;SDS011;9206;50.994;4.538;2023-06-10T10:52:12;6.15;;;4.40;;
18162;SDS011;9206;50.994;4.538;2023-06-10T10:55:03;4.75;;;4.30;;
18162;SDS011;9206;50.994;4.538;2023-06-10T10:58:06;6.90;;;4.80;;
18162;SDS011;9206;50.994;4.538;2023-06-10T11:01:14;5.43;;;4.93;;
18162;SDS011;9206;50.994;4.538;2023-06-10T11:04:02;6.25;;;4.70;;
18162;SDS011;9206;50.994;4.538;2023-06-10T11:23:25;8.00;;;4.75;;
18162;SDS011;9206;50.994;4.538;2023-06-10T11:26:29;5.30;;;4.70;;
18162;SDS011;9206;50.994;4.538;2023-06-10T11:33:07;5.18;;;4.78;;
18162;SDS011;9206;50.994;4.538;2023-06-10T11:37:06;5.50;;;4.80;;
18162;SDS011;9206;50.994;4.538;2023-06-10T11:47:09;4.88;;;4.57;;
18162;SDS011;9206;50.994;4.538;2023-06-10T12:01:26;5.70;;;4.72;;
18162;SDS011;9206;50.994;4.538;2023-06-10T12:04:54;5.78;;;4.68;;
18162;SDS011;9206;50.994;4.538;2023-06-10T12:17:16;5.15;;;4.82;;
18162;SDS011;9206;50.994;4.538;2023-06-10T12:44:08;5.22;;;3.97;;
18162;SDS011;9206;50.994;4.538;2023-06-10T12:47:09;5.53;;;4.10;;
18162;SDS011;9206;50.994;4.538;2023-06-10T12:54:19;4.75;;;4.18;;
18162;SDS011;9206;50.994;4.538;2023-06-10T13:13:58;6.55;;;4.10;;
18162;SDS011;9206;50.994;4.538;2023-06-10T13:23:59;4.80;;;4.40;;
18162;SDS011;9206;50.994;4.538;2023-06-10T13:33:42;4.20;;;3.90;;
18162;SDS011;9206;50.994;4.538;2023-06-10T13:55:26;4.78;;;4.47;;
18162;SDS011;9206;50.994;4.538;2023-06-10T14:04:55;4.72;;;4.43;;
18162;SDS011;9206;50.994;4.538;2023-06-10T14:07:52;5.22;;;4.68;;
18162;SDS011;9206;50.994;4.538;2023-06-10T14:17:23;5.10;;;4.70;;
18162;SDS011;9206;50.994;4.538;2023-06-10T14:20:18;5.03;;;4.68;;
18162;SDS011;9206;50.994;4.538;2023-06-10T14:23:46;5.97;;;4.40;;
18162;SDS011;9206;50.994;4.538;2023-06-10T14:26:44;5.03;;;4.53;;
18162;SDS011;9206;50.994;4.538;2023-06-10T14:29:51;7.80;;;4.55;;
18162;SDS011;9206;50.994;4.538;2023-06-10T14:32:58;7.28;;;4.40;;
18162;SDS011;9206;50.994;4.538;2023-06-10T14:39:37;4.80;;;4.40;;
18162;SDS011;9206;50.994;4.538;2023-06-10T14:43:14;6.13;;;5.05;;
18162;SDS011;9206;50.994;4.538;2023-06-10T14:46:12;5.05;;;4.65;;
18162;SDS011;9206;50.994;4.538;2023-06-10T16:10:21;4.35;;;4.13;;
18162;SDS011;9206;50.994;4.538;2023-06-10T16:16:34;4.88;;;4.28;;
18162;SDS011;9206;50.994;4.538;2023-06-10T16:19:57;4.57;;;4.28;;
18162;SDS011;9206;50.994;4.538;2023-06-10T16:22:57;8.25;;;4.57;;
18162;SDS011;9206;50.994;4.538;2023-06-10T16:26:19;4.97;;;4.32;;
18162;SDS011;9206;50.994;4.538;2023-06-10T16:32:13;4.70;;;4.40;;
18162;SDS011;9206;50.994;4.538;2023-06-10T16:46:25;5.05;;;4.40;;
18162;SDS011;9206;50.994;4.538;2023-06-10T16:54:50;6.22;;;3.90;;
18162;SDS011;9206;50.994;4.538;2023-06-10T17:01:06;7.53;;;4.45;;
18162;SDS011;9206;50.994;4.538;2023-06-10T17:08:36;4.63;;;4.32;;
18162;SDS011;9206;50.994;4.538;2023-06-10T17:11:25;7.95;;;4.45;;
18162;SDS011;9206;50.994;4.538;2023-06-10T17:14:18;5.30;;;4.50;;
18162;SDS011;9206;50.994;4.538;2023-06-10T17:17:12;5.38;;;4.53;;
18162;SDS011;9206;50.994;4.538;2023-06-10T17:20:04;4.57;;;4.18;;
18162;SDS011;9206;50.994;4.538;2023-06-10T20:51:22;9.65;;;7.30;;
18162;SDS011;9206;50.994;4.538;2023-06-10T20:57:03;14.90;;;7.05;;
18162;SDS011;9206;50.994;4.538;2023-06-10T21:00:26;8.40;;;6.72;;
18162;SDS011;9206;50.994;4.538;2023-06-10T21:03:22;7.80;;;6.95;;
18162;SDS011;9206;50.994;4.538;2023-06-10T21:06:15;15.88;;;7.40;;
18162;SDS011;9206;50.994;4.538;2023-06-10T21:09:05;7.07;;;6.38;;
18162;SDS011;9206;50.994;4.538;2023-06-10T21:11:58;8.10;;;6.88;;
18162;SDS011;9206;50.994;4.538;2023-06-10T21:14:47;7.60;;;6.95;;
18162;SDS011;9206;50.994;4.538;2023-06-10T21:17:52;8.52;;;6.45;;
18162;SDS011;9206;50.994;4.538;2023-06-10T21:20:40;8.23;;;6.95;;
18162;SDS011;9206;50.994;4.538;2023-06-10T21:23:31;7.93;;;7.18;;
